Time;durP1;ratioP1;P1;durP2;ratioP2;P2;SDS_P1;SDS_P2;PMS_P1;PMS_P2;Temp;Humidity;BMP_temperature;BMP_pressure;BME280_temperature;BME280_humidity;BME280_pressure;Samples;Min_cycle;Max_cycle;Signal;HPM_P1;HPM_P2
2022/04/10 00:00:54;;;;;;;6.95;4.80;;;231.00;2124.80;;;;;;4845585;29;20045;-62
2022/04/10 00:03:22;;;;;;;6.95;5.05;;;231.10;2099.20;;;;;;4845598;29;20388;-62
2022/04/10 00:05:52;;;;;;;5.78;5.05;;;231.00;2048.00;;;;;;4845262;29;20025;-62
2022/04/10 00:08:18;;;;;;;6.80;4.68;;;230.90;2048.00;;;;;;4845386;29;20109;-62
2022/04/10 00:10:44;;;;;;;5.65;5.03;;;231.00;2048.00;;;;;;4845539;29;20135;-62
2022/04/10 00:13:11;;;;;;;5.72;4.60;;;230.90;2048.00;;;;;;4845095;29;20528;-62
2022/04/10 00:15:37;;;;;;;8.13;5.35;;;230.80;2099.20;;;;;;4844665;29;20056;-62
2022/04/10 00:18:03;;;;;;;8.25;5.18;;;230.90;2124.80;;;;;;4844452;29;20045;-62
2022/04/10 00:20:28;;;;;;;9.27;5.20;;;230.90;2048.00;;;;;;4845291;29;20026;-62
2022/04/10 00:22:54;;;;;;;14.25;5.18;;;230.80;2124.80;;;;;;4845144;29;20519;-62
2022/04/10 00:25:20;;;;;;;5.88;3.95;;;230.80;2124.80;;;;;;4845027;29;20478;-62
2022/04/10 00:27:46;;;;;;;7.10;4.70;;;230.80;2073.60;;;;;;4844822;29;20041;-62
2022/04/10 00:30:15;;;;;;;7.65;5.13;;;230.70;2150.40;;;;;;4844891;29;20114;-62
2022/04/10 00:32:41;;;;;;;7.68;4.45;;;230.70;2150.40;;;;;;4845103;29;20097;-62
2022/04/10 00:35:08;;;;;;;9.32;5.50;;;230.70;2073.60;;;;;;4844894;29;20524;-62
2022/04/10 00:37:38;;;;;;;7.78;5.45;;;230.60;2124.80;;;;;;4844578;29;20488;-62
2022/04/10 00:40:05;;;;;;;6.70;5.15;;;230.60;2227.20;;;;;;4844893;29;20039;-62
2022/04/10 00:42:32;;;;;;;13.98;5.43;;;230.70;2150.40;;;;;;4844506;29;20070;-62
2022/04/10 00:44:58;;;;;;;6.35;5.65;;;230.60;2201.60;;;;;;4844591;29;20468;-62
2022/04/10 00:47:24;;;;;;;9.05;6.40;;;230.60;2201.60;;;;;;4844759;29;20048;-62
2022/04/10 00:49:49;;;;;;;7.65;5.70;;;230.70;2150.40;;;;;;4844644;29;20112;-62
2022/04/10 00:52:16;;;;;;;9.75;6.25;;;230.70;2124.80;;;;;;4844546;29;20030;-62
2022/04/10 00:54:42;;;;;;;9.15;5.70;;;230.70;2201.60;;;;;;4844524;29;20045;-62
2022/04/10 00:57:10;;;;;;;8.45;5.78;;;230.70;2176.00;;;;;;4844379;29;20094;-62
2022/04/10 00:59:36;;;;;;;8.18;6.10;;;230.70;2124.80;;;;;;4844552;29;20026;-62
2022/04/10 01:02:03;;;;;;;11.25;6.15;;;230.60;2201.60;;;;;;4844469;29;20046;-62
2022/04/10 01:04:29;;;;;;;9.63;5.95;;;230.60;2227.20;;;;;;4844248;29;20022;-62
2022/04/10 01:06:56;;;;;;;7.55;5.07;;;230.60;2176.00;;;;;;4844265;29;20091;-62
2022/04/10 01:09:24;;;;;;;9.43;5.50;;;230.70;2201.60;;;;;;4844226;29;20034;-62
2022/04/10 01:11:52;;;;;;;7.35;5.78;;;230.50;2252.80;;;;;;4827880;29;20037;-62
2022/04/10 01:14:18;;;;;;;6.60;5.57;;;230.50;2201.60;;;;;;4844262;29;20029;-62
2022/04/10 01:16:44;;;;;;;7.97;6.13;;;230.60;2201.60;;;;;;4844236;29;20042;-62
2022/04/10 01:19:11;;;;;;;7.32;5.80;;;230.50;2227.20;;;;;;4844095;29;20025;-62
2022/04/10 01:21:44;;;;;;;9.68;5.95;;;230.50;2252.80;;;;;;4844019;29;20472;-62
2022/04/10 01:24:11;;;;;;;8.07;6.20;;;230.60;2176.00;;;;;;4844272;29;20030;-62
2022/04/10 01:26:37;;;;;;;10.25;6.32;;;230.60;2227.20;;;;;;4843776;29;20030;-62
2022/04/10 01:29:03;;;;;;;7.60;5.00;;;230.50;2227.20;;;;;;4843619;29;20059;-61
2022/04/10 01:31:30;;;;;;;7.00;5.28;;;230.60;2150.40;;;;;;4843968;29;20053;-62
2022/04/10 01:33:59;;;;;;;6.85;5.60;;;230.50;2201.60;;;;;;4843819;29;20026;-62
2022/04/10 01:36:27;;;;;;;8.00;5.95;;;230.50;2252.80;;;;;;4843749;29;20030;-62
2022/04/10 01:38:55;;;;;;;7.40;5.32;;;230.40;2252.80;;;;;;4843746;29;20038;-62
2022/04/10 01:41:25;;;;;;;9.40;5.90;;;205.70;2252.80;;;;;;4843527;29;20034;-61
2022/04/10 01:43:52;;;;;;;7.72;6.07;;;205.70;2252.80;;;;;;4843503;29;20030;-62
2022/04/10 01:46:19;;;;;;;8.55;5.95;;;205.70;2252.80;;;;;;4843669;29;20040;-62
2022/04/10 01:48:45;;;;;;;6.82;5.50;;;205.50;2252.80;;;;;;4843640;29;20033;-62
2022/04/10 01:51:11;;;;;;;7.60;5.40;;;205.60;2252.80;;;;;;4843653;29;20030;-62
2022/04/10 01:53:37;;;;;;;6.55;5.47;;;205.60;2252.80;;;;;;4843776;29;20118;-62
2022/04/10 01:56:05;;;;;;;7.88;5.50;;;205.60;2252.80;;;;;;4843296;29;20460;-61
2022/04/10 01:58:31;;;;;;;8.27;6.20;;;205.50;2252.80;;;;;;4843462;29;20022;-62
2022/04/10 02:00:57;;;;;;;8.60;6.88;;;205.40;2252.80;;;;;;4843895;29;20080;-62
2022/04/10 02:03:23;;;;;;;8.95;7.20;;;205.20;2252.80;;;;;;4843337;29;20480;-62
2022/04/10 02:05:49;;;;;;;9.52;6.20;;;205.30;2252.80;;;;;;4843532;29;20042;-61
2022/04/10 02:08:15;;;;;;;9.63;6.22;;;205.20;2252.80;;;;;;4843333;29;20407;-61
2022/04/10 02:10:40;;;;;;;7.75;6.13;;;205.30;2252.80;;;;;;4843316;29;20117;-62
2022/04/10 02:13:09;;;;;;;5.97;4.95;;;205.20;2252.80;;;;;;4842972;29;20501;-61
2022/04/10 02:15:39;;;;;;;11.10;5.47;;;205.30;2252.80;;;;;;4843295;29;20034;-61
2022/04/10 02:18:06;;;;;;;6.88;5.00;;;205.30;2252.80;;;;;;4843247;29;20037;-62
2022/04/10 02:20:32;;;;;;;8.88;5.80;;;205.30;2252.80;;;;;;4843191;29;20030;-62
2022/04/10 02:22:57;;;;;;;6.40;5.32;;;205.20;2252.80;;;;;;4843172;29;20041;-62
2022/04/10 02:25:23;;;;;;;6.13;5.15;;;205.30;2252.80;;;;;;4843082;29;20041;-61
2022/04/10 02:27:50;;;;;;;9.25;5.47;;;205.30;2252.80;;;;;;4842874;29;20121;-62
2022/04/10 02:30:16;;;;;;;10.55;5.55;;;205.20;2252.80;;;;;;4842867;29;20053;-62
2022/04/10 02:32:42;;;;;;;7.88;5.53;;;205.40;2252.80;;;;;;4843008;29;20034;-61
2022/04/10 02:35:08;;;;;;;8.18;5.30;;;205.30;2252.80;;;;;;4842852;29;20045;-62
2022/04/10 02:37:35;;;;;;;7.07;5.15;;;205.30;2252.80;;;;;;4842984;29;20476;-62
2022/04/10 02:40:01;;;;;;;6.47;4.72;;;205.40;2252.80;;;;;;4842486;29;20030;-62
2022/04/10 02:42:27;;;;;;;5.75;5.03;;;205.40;2252.80;;;;;;4842797;29;20048;-61
2022/04/10 02:44:54;;;;;;;5.88;5.13;;;205.40;2252.80;;;;;;4842919;29;20033;-62
2022/04/10 02:47:20;;;;;;;9.00;4.90;;;205.40;2252.80;;;;;;4842767;29;20085;-61
2022/04/10 02:49:46;;;;;;;6.60;5.15;;;205.40;2252.80;;;;;;4842795;29;20054;-61
2022/04/10 02:52:12;;;;;;;7.40;5.30;;;205.40;2252.80;;;;;;4842736;29;20553;-62
2022/04/10 02:54:38;;;;;;;7.95;5.05;;;205.40;2252.80;;;;;;4842800;29;20030;-62
2022/04/10 02:57:04;;;;;;;10.82;6.07;;;205.50;2252.80;;;;;;4842255;29;20038;-62
2022/04/10 02:59:30;;;;;;;7.93;5.65;;;205.30;2252.80;;;;;;4841568;29;20057;-62
2022/04/10 03:01:56;;;;;;;6.53;4.90;;;205.30;2252.80;;;;;;4842792;29;20113;-62
2022/04/10 03:04:22;;;;;;;7.32;5.72;;;205.40;2252.80;;;;;;4842925;29;20035;-62
2022/04/10 03:06:48;;;;;;;8.38;5.13;;;205.30;2252.80;;;;;;4842750;29;20030;-62
2022/04/10 03:09:13;;;;;;;7.70;5.68;;;205.30;2252.80;;;;;;4843084;29;20127;-61
2022/04/10 03:11:39;;;;;;;7.03;5.47;;;205.40;2252.80;;;;;;4842786;29;20038;-61
2022/04/10 03:14:05;;;;;;;8.77;5.82;;;205.50;2252.80;;;;;;4842610;29;20091;-61
2022/04/10 03:16:31;;;;;;;9.57;6.60;;;205.40;2252.80;;;;;;4842681;29;20046;-61
2022/04/10 03:18:56;;;;;;;10.75;6.82;;;205.40;2252.80;;;;;;4842712;29;20102;-62
2022/04/10 03:21:22;;;;;;;9.38;6.70;;;205.50;2252.80;;;;;;4842518;29;20042;-61
2022/04/10 03:23:48;;;;;;;10.73;7.53;;;205.40;2252.80;;;;;;4842713;29;20038;-61
2022/04/10 03:26:13;;;;;;;9.35;5.93;;;205.40;2252.80;;;;;;4842571;29;20030;-62
2022/04/10 03:28:39;;;;;;;8.60;6.30;;;205.50;2252.80;;;;;;4842320;29;20053;-62
2022/04/10 03:31:05;;;;;;;8.48;6.93;;;205.40;2252.80;;;;;;4842215;29;20086;-61
2022/04/10 03:33:30;;;;;;;8.23;6.13;;;205.40;2252.80;;;;;;4842521;29;20038;-61
2022/04/10 03:35:59;;;;;;;10.45;7.28;;;205.40;2252.80;;;;;;4842160;29;20044;-62
2022/04/10 03:38:25;;;;;;;8.93;6.40;;;205.40;2252.80;;;;;;4842345;29;20496;-61
2022/04/10 03:40:51;;;;;;;10.20;6.15;;;205.30;2252.80;;;;;;4842462;29;20053;-62
2022/04/10 03:43:17;;;;;;;7.50;5.72;;;205.30;2252.80;;;;;;4842253;29;20033;-61
2022/04/10 03:45:42;;;;;;;7.78;6.47;;;205.40;2252.80;;;;;;4842166;29;20030;-61
2022/04/10 03:48:09;;;;;;;7.82;6.20;;;205.40;2252.80;;;;;;4842487;29;20159;-61
2022/04/10 03:50:36;;;;;;;7.95;5.72;;;205.30;2252.80;;;;;;4842585;29;20059;-61
2022/04/10 03:53:03;;;;;;;7.63;6.07;;;205.40;2252.80;;;;;;4845062;29;20109;-61
2022/04/10 03:55:29;;;;;;;8.20;6.32;;;205.40;2252.80;;;;;;4845340;29;20051;-61
2022/04/10 03:57:55;;;;;;;8.98;6.43;;;205.30;2252.80;;;;;;4845149;29;20513;-62
2022/04/10 04:00:20;;;;;;;7.40;6.07;;;205.40;2252.80;;;;;;4845598;29;20113;-61
2022/04/10 04:02:46;;;;;;;6.03;4.97;;;205.40;2252.80;;;;;;4845340;29;20030;-61
2022/04/10 04:05:13;;;;;;;8.15;5.85;;;205.30;2252.80;;;;;;4845527;29;20030;-61
2022/04/10 04:07:39;;;;;;;10.27;7.85;;;205.30;2252.80;;;;;;4845042;29;20049;-62
2022/04/10 04:10:06;;;;;;;9.05;7.28;;;205.20;2252.80;;;;;;4845266;29;20038;-61
2022/04/10 04:12:33;;;;;;;10.48;8.15;;;205.20;2252.80;;;;;;4844552;29;20113;-61
2022/04/10 04:14:59;;;;;;;13.43;10.02;;;205.30;2252.80;;;;;;4844774;29;20532;-62
2022/04/10 04:17:25;;;;;;;14.32;10.50;;;205.40;2252.80;;;;;;4845161;29;20042;-62
2022/04/10 04:19:51;;;;;;;16.92;11.10;;;205.30;2252.80;;;;;;4845096;29;20132;-62
2022/04/10 04:22:17;;;;;;;16.83;11.93;;;205.30;2252.80;;;;;;4844814;29;20081;-62
2022/04/10 04:24:44;;;;;;;26.67;16.98;;;205.10;2252.80;;;;;;4845076;29;20491;-61
2022/04/10 04:27:10;;;;;;;26.20;15.27;;;205.10;2252.80;;;;;;4844747;29;20030;-62
2022/04/10 04:29:36;;;;;;;22.70;14.02;;;205.00;2252.80;;;;;;4844885;29;20057;-61
2022/04/10 04:32:02;;;;;;;29.23;19.17;;;205.10;2252.80;;;;;;4845113;29;20384;-63
2022/04/10 04:34:28;;;;;;;22.35;13.40;;;205.00;2252.80;;;;;;4844818;29;20468;-61
2022/04/10 04:36:53;;;;;;;15.35;9.00;;;205.00;2252.80;;;;;;4844842;29;20066;-62
2022/04/10 04:39:19;;;;;;;13.07;9.80;;;205.10;2252.80;;;;;;4844819;29;20108;-62
2022/04/10 04:41:46;;;;;;;13.07;10.05;;;205.00;2252.80;;;;;;4844795;29;20384;-62
2022/04/10 04:44:11;;;;;;;21.77;13.57;;;204.90;2252.80;;;;;;4844496;29;20033;-61
2022/04/10 04:46:37;;;;;;;19.55;12.32;;;205.00;2252.80;;;;;;4844706;29;20037;-62
2022/04/10 04:49:04;;;;;;;13.60;10.00;;;205.20;2252.80;;;;;;4844534;29;20033;-62
2022/04/10 04:51:34;;;;;;;10.60;8.70;;;205.20;2252.80;;;;;;4844502;29;20075;-61
2022/04/10 04:54:01;;;;;;;11.82;8.15;;;205.30;2252.80;;;;;;4844452;29;20034;-62
2022/04/10 04:56:27;;;;;;;8.63;7.40;;;205.40;2252.80;;;;;;4844496;29;20034;-62
2022/04/10 04:58:53;;;;;;;9.25;6.55;;;205.30;2252.80;;;;;;4844468;29;20396;-61
2022/04/10 05:01:18;;;;;;;9.35;6.55;;;205.40;2252.80;;;;;;4844581;29;20053;-61
2022/04/10 05:03:44;;;;;;;10.85;6.70;;;205.30;2252.80;;;;;;4844085;29;20559;-61
2022/04/10 05:06:10;;;;;;;8.02;6.57;;;205.30;2252.80;;;;;;4844156;29;20112;-62
2022/04/10 05:08:36;;;;;;;10.45;7.88;;;205.40;2252.80;;;;;;4844404;29;20117;-61
2022/04/10 05:11:01;;;;;;;8.55;6.72;;;205.30;2252.80;;;;;;4844117;29;20042;-61
2022/04/10 05:13:27;;;;;;;11.90;8.43;;;205.50;2252.80;;;;;;4844103;29;20037;-61
2022/04/10 05:15:53;;;;;;;14.93;9.20;;;205.40;2252.80;;;;;;4844169;29;20026;-62
2022/04/10 05:18:19;;;;;;;14.85;10.25;;;205.30;2252.80;;;;;;4843927;29;20034;-61
2022/04/10 05:20:46;;;;;;;14.00;9.05;;;205.30;2252.80;;;;;;4844134;29;20034;-61
2022/04/10 05:23:16;;;;;;;12.43;8.77;;;205.40;2252.80;;;;;;4843806;29;20051;-61
2022/04/10 05:25:41;;;;;;;10.45;6.60;;;205.20;2252.80;;;;;;4843898;29;20109;-61
2022/04/10 05:28:07;;;;;;;12.82;7.88;;;205.20;2252.80;;;;;;4843788;29;20118;-61
2022/04/10 05:30:33;;;;;;;15.40;9.75;;;205.30;2252.80;;;;;;4843717;29;20086;-61
2022/04/10 05:32:59;;;;;;;18.75;11.73;;;205.20;2252.80;;;;;;4843778;29;20054;-62
2022/04/10 05:35:25;;;;;;;12.80;9.43;;;205.20;2252.80;;;;;;4843692;29;20079;-61
2022/04/10 05:37:51;;;;;;;16.10;10.00;;;205.30;2252.80;;;;;;4843695;29;20038;-62
2022/04/10 05:40:17;;;;;;;16.15;10.43;;;205.20;2252.80;;;;;;4843497;29;20476;-61
2022/04/10 05:42:44;;;;;;;24.02;14.88;;;205.10;2252.80;;;;;;4843626;29;20479;-61
2022/04/10 05:45:10;;;;;;;26.50;16.20;;;205.40;2252.80;;;;;;4843602;29;20044;-61
2022/04/10 05:47:38;;;;;;;18.85;11.75;;;205.30;2252.80;;;;;;4843483;29;20030;-61
2022/04/10 05:50:05;;;;;;;10.57;6.38;;;205.30;2252.80;;;;;;4843634;29;20029;-61
2022/04/10 05:52:31;;;;;;;8.35;6.40;;;205.40;2252.80;;;;;;4843334;29;20038;-61
2022/04/10 05:55:00;;;;;;;9.48;7.53;;;205.40;2252.80;;;;;;4843348;29;20087;-61
2022/04/10 05:57:26;;;;;;;8.07;5.97;;;205.40;2252.80;;;;;;4843381;29;20124;-61
2022/04/10 05:59:51;;;;;;;9.23;6.80;;;205.50;2252.80;;;;;;4843324;29;20452;-61
2022/04/10 06:02:17;;;;;;;8.85;6.55;;;205.40;2252.80;;;;;;4843631;29;20030;-61
2022/04/10 06:04:43;;;;;;;11.77;6.38;;;205.40;2252.80;;;;;;4843448;29;20064;-61
2022/04/10 06:07:09;;;;;;;11.80;6.97;;;205.60;2252.80;;;;;;4843189;29;20456;-61
2022/04/10 06:09:35;;;;;;;8.95;6.97;;;205.50;2252.80;;;;;;4843189;29;20472;-61
2022/04/10 06:12:00;;;;;;;8.30;6.13;;;205.40;2252.80;;;;;;4843325;29;20040;-61
2022/04/10 06:14:26;;;;;;;13.02;8.73;;;205.50;2252.80;;;;;;4842342;29;20034;-61
2022/04/10 06:16:52;;;;;;;14.30;9.27;;;205.60;2252.80;;;;;;4843221;29;20496;-62
2022/04/10 06:19:19;;;;;;;11.60;8.35;;;205.60;2252.80;;;;;;4843156;29;20050;-61
2022/04/10 06:21:45;;;;;;;18.05;11.80;;;205.70;2252.80;;;;;;4843152;29;20026;-62
2022/04/10 06:24:11;;;;;;;15.48;11.57;;;205.70;2252.80;;;;;;4843132;29;20496;-61
2022/04/10 06:26:36;;;;;;;13.23;10.15;;;205.40;2252.80;;;;;;4842615;29;20473;-63
2022/04/10 06:29:03;;;;;;;19.05;14.07;;;205.50;2252.80;;;;;;4842679;29;20426;-62
2022/04/10 06:31:28;;;;;;;40.53;27.05;;;205.50;2252.80;;;;;;4853852;29;20489;-61
2022/04/10 06:33:56;;;;;;;16.15;11.40;;;205.50;2252.80;;;;;;4824955;29;20034;-62
2022/04/10 06:36:23;;;;;;;15.00;11.60;;;205.60;2252.80;;;;;;4824584;29;20057;-61
2022/04/10 06:38:52;;;;;;;14.98;11.70;;;230.40;2252.80;;;;;;4825119;29;20374;-62
2022/04/10 06:41:18;;;;;;;12.52;10.48;;;205.70;2252.80;;;;;;4824685;29;20034;-62
2022/04/10 06:43:44;;;;;;;12.57;9.77;;;205.70;2252.80;;;;;;4824637;29;20030;-62
2022/04/10 06:46:09;;;;;;;12.35;9.45;;;205.70;2252.80;;;;;;4824786;29;20042;-62
2022/04/10 06:48:36;;;;;;;11.52;8.55;;;205.70;2252.80;;;;;;4824776;29;20426;-62
2022/04/10 06:51:03;;;;;;;13.98;10.07;;;205.70;2252.80;;;;;;4824621;29;20038;-62
2022/04/10 06:53:29;;;;;;;13.65;10.80;;;205.70;2252.80;;;;;;4822950;29;20083;-61
2022/04/10 06:55:54;;;;;;;12.48;10.02;;;205.70;2252.80;;;;;;4824322;29;20033;-61
2022/04/10 06:58:22;;;;;;;15.07;10.52;;;230.40;2252.80;;;;;;4824280;29;20399;-61
2022/04/10 07:00:49;;;;;;;19.55;10.02;;;230.40;2252.80;;;;;;4824671;29;20035;-62
2022/04/10 07:03:14;;;;;;;13.10;9.55;;;230.50;2252.80;;;;;;4824566;29;20125;-61
2022/04/10 07:05:40;;;;;;;15.90;10.27;;;230.60;2227.20;;;;;;4823360;29;20537;-62
2022/04/10 07:08:07;;;;;;;11.25;8.85;;;230.70;2252.80;;;;;;4824345;29;20117;-61
2022/04/10 07:10:33;;;;;;;10.95;8.70;;;230.70;2252.80;;;;;;4828640;29;20069;-61
2022/04/10 07:12:59;;;;;;;9.45;7.72;;;230.90;2176.00;;;;;;4832198;29;20080;-60
2022/04/10 07:15:25;;;;;;;11.18;7.75;;;231.10;2176.00;;;;;;4831565;29;20440;-61
2022/04/10 07:17:52;;;;;;;16.75;8.95;;;231.20;2124.80;;;;;;4831597;29;20066;-61
2022/04/10 07:20:18;;;;;;;11.65;7.28;;;231.30;2048.00;;;;;;4832430;29;20026;-61
2022/04/10 07:25:28;;;;;;;12.95;9.48;;;256.20;2022.40;;;;;;4830826;29;20076;-62
2022/04/10 07:27:54;;;;;;;17.77;9.15;;;256.60;2048.00;;;;;;4836636;29;20030;-61
2022/04/10 07:30:19;;;;;;;10.00;7.55;;;256.80;1996.80;;;;;;4846440;29;20125;-61
2022/04/10 07:32:56;;;;;;;10.15;7.07;;;281.60;1971.20;;;;;;4856550;29;20026;-61
2022/04/10 07:35:22;;;;;;;9.88;7.00;;;281.80;1945.60;;;;;;4864443;29;20046;-61
2022/04/10 07:37:48;;;;;;;8.27;6.32;;;281.90;1920.00;;;;;;4863334;29;20468;-61
2022/04/10 07:40:15;;;;;;;10.90;6.80;;;281.90;1894.40;;;;;;4856277;29;20030;-61
2022/04/10 07:42:43;;;;;;;9.20;6.30;;;282.10;1817.60;;;;;;4849822;29;20038;-61
2022/04/10 07:47:25;;;;;;;9.68;6.90;;;282.10;1843.20;;;;;;4845779;29;20101;-61
2022/04/10 07:48:01;;;;;;;11.52;7.75;;;282.10;1843.20;;;;;;4845650;29;20477;-62
2022/04/10 07:50:28;;;;;;;11.30;7.13;;;282.00;1843.20;;;;;;4845786;29;20034;-61
2022/04/10 07:52:55;;;;;;;10.43;7.05;;;282.10;1843.20;;;;;;4845641;29;20396;-61
2022/04/10 07:55:22;;;;;;;14.80;8.35;;;282.10;1817.60;;;;;;4845561;29;20038;-61
2022/04/10 07:57:48;;;;;;;13.13;6.70;;;282.30;1868.80;;;;;;4845551;29;20038;-61
2022/04/10 08:00:15;;;;;;;7.50;5.72;;;282.30;1817.60;;;;;;4845710;29;20105;-61
2022/04/10 08:02:46;;;;;;;7.15;4.97;;;282.50;1792.00;;;;;;4844904;29;20509;-61
2022/04/10 08:05:13;;;;;;;5.55;4.78;;;307.20;1792.00;;;;;;4845403;29;20068;-62
2022/04/10 08:07:38;;;;;;;9.95;5.78;;;307.30;1817.60;;;;;;4845526;29;20411;-62
2022/04/10 08:10:05;;;;;;;7.68;5.25;;;307.30;1792.00;;;;;;4844854;29;20030;-61
2022/04/10 08:12:31;;;;;;;11.43;6.47;;;307.20;1817.60;;;;;;4849066;29;20030;-61
2022/04/10 08:14:56;;;;;;;14.10;7.22;;;307.30;1766.40;;;;;;4860646;29;20480;-62
2022/04/10 08:17:22;;;;;;;8.82;5.88;;;307.40;1817.60;;;;;;4857030;29;20050;-61
2022/04/10 08:19:48;;;;;;;7.55;4.65;;;307.30;1792.00;;;;;;4844135;29;20026;-61
2022/04/10 08:22:14;;;;;;;12.75;5.82;;;307.30;1766.40;;;;;;4850011;29;20037;-62
2022/04/10 08:24:39;;;;;;;10.27;5.43;;;307.50;1817.60;;;;;;4858530;29;20041;-61
2022/04/10 08:27:05;;;;;;;10.35;6.00;;;307.70;1792.00;;;;;;4844546;29;20116;-62
2022/04/10 08:29:31;;;;;;;10.15;4.80;;;307.90;1766.40;;;;;;4851106;29;20042;-61
2022/04/10 08:31:56;;;;;;;7.13;5.07;;;307.90;1715.20;;;;;;4857865;29;20073;-61
2022/04/10 08:34:22;;;;;;;11.60;6.75;;;308.00;1689.60;;;;;;4856551;29;20037;-62
2022/04/10 08:36:48;;;;;;;10.98;6.40;;;308.00;1715.20;;;;;;4850470;29;20366;-62
2022/04/10 08:39:14;;;;;;;10.07;6.72;;;332.80;1715.20;;;;;;4853432;29;20022;-63
2022/04/10 08:41:39;;;;;;;24.13;7.05;;;333.00;1740.80;;;;;;4852485;29;20030;-63
2022/04/10 08:44:05;;;;;;;13.95;5.47;;;333.00;1740.80;;;;;;4852215;29;20026;-60
2022/04/10 08:46:35;;;;;;;8.60;6.47;;;333.00;1715.20;;;;;;4853430;29;20468;-61
2022/04/10 08:49:02;;;;;;;7.18;5.30;;;333.00;1740.80;;;;;;4852514;29;20044;-61
2022/04/10 08:51:30;;;;;;;8.77;6.65;;;333.10;1689.60;;;;;;4854432;29;20045;-63
2022/04/10 08:53:56;;;;;;;8.05;5.30;;;333.30;1689.60;;;;;;4846727;29;20026;-62
2022/04/10 08:56:23;;;;;;;14.40;9.70;;;333.40;1664.00;;;;;;4843089;29;20040;-61
2022/04/10 08:58:52;;;;;;;8.50;5.45;;;333.50;1664.00;;;;;;4848272;29;20065;-62
2022/04/10 09:01:22;;;;;;;8.05;5.93;;;333.60;1612.80;;;;;;4844444;29;20117;-62
2022/04/10 09:03:48;;;;;;;6.97;5.30;;;333.70;1612.80;;;;;;4844439;29;20381;-63
2022/04/10 09:06:15;;;;;;;12.05;6.97;;;358.40;1587.20;;;;;;4844455;29;20076;-62
2022/04/10 09:08:43;;;;;;;10.65;6.13;;;358.60;1612.80;;;;;;4844405;29;20026;-62
2022/04/10 09:11:11;;;;;;;9.30;6.18;;;358.70;1587.20;;;;;;4844434;29;20090;-62
2022/04/10 09:13:37;;;;;;;8.65;5.38;;;358.80;1561.60;;;;;;4844354;29;20053;-62
2022/04/10 09:16:07;;;;;;;8.77;6.80;;;358.60;1484.80;;;;;;4843988;29;20030;-63
2022/04/10 09:18:50;;;;;;;10.50;6.53;;;358.60;1536.00;;;;;;4844163;29;20030;-63
2022/04/10 09:21:18;;;;;;;10.40;5.93;;;358.70;1484.80;;;;;;4844094;29;20030;-62
2022/04/10 09:23:52;;;;;;;9.48;6.45;;;358.70;1459.20;;;;;;4844103;29;20038;-63
2022/04/10 09:26:18;;;;;;;;;;;358.60;1459.20;;;;;;4844482;29;20045;-62
2022/04/10 09:28:46;;;;;;;13.65;7.53;;;358.60;1433.60;;;;;;4843954;29;19908;-62
2022/04/10 09:31:26;;;;;;;13.25;8.48;;;358.60;1408.00;;;;;;4841850;29;20064;-62
2022/04/10 09:33:54;;;;;;;9.07;5.15;;;358.70;1382.40;;;;;;4843849;29;20061;-62
2022/04/10 09:36:33;;;;;;;14.48;4.85;;;358.80;1356.80;;;;;;4844370;29;20090;-62
2022/04/10 09:39:00;;;;;;;10.77;6.30;;;358.90;1331.20;;;;;;4843763;29;20048;-62
2022/04/10 09:41:26;;;;;;;8.15;5.03;;;358.90;1331.20;;;;;;4843609;29;20151;-62
2022/04/10 09:43:52;;;;;;;6.53;4.32;;;358.90;1331.20;;;;;;4843702;29;20081;-62
2022/04/10 09:46:18;;;;;;;6.10;4.00;;;359.00;1280.00;;;;;;4843680;29;20113;-62
2022/04/10 09:48:44;;;;;;;7.10;4.00;;;359.10;1280.00;;;;;;4843229;29;20113;-63
2022/04/10 09:51:12;;;;;;;5.57;2.95;;;359.10;1254.40;;;;;;4843752;29;20440;-62
2022/04/10 09:53:38;;;;;;;5.18;3.35;;;358.80;1177.60;;;;;;4843595;29;20056;-61
2022/04/10 09:56:06;;;;;;;8.50;4.50;;;358.60;1203.20;;;;;;4843510;29;20556;-61
2022/04/10 09:58:32;;;;;;;6.90;4.55;;;358.60;1254.40;;;;;;4843515;29;20118;-62
2022/04/10 10:01:00;;;;;;;6.10;3.72;;;358.70;1280.00;;;;;;4843068;29;20071;-62
2022/04/10 10:03:36;;;;;;;6.32;4.07;;;359.00;1254.40;;;;;;4843284;29;20022;-62
2022/04/10 10:06:03;;;;;;;11.75;4.32;;;359.10;1254.40;;;;;;4843181;29;20114;-62
2022/04/10 10:08:29;;;;;;;7.57;4.60;;;359.20;1203.20;;;;;;4842912;29;20030;-63
2022/04/10 10:10:56;;;;;;;9.43;5.25;;;359.10;1228.80;;;;;;4843822;29;20037;-63
2022/04/10 10:13:27;;;;;;;12.27;6.57;;;359.10;1228.80;;;;;;4843274;29;20365;-63
2022/04/10 10:15:55;;;;;;;11.18;5.38;;;359.30;1228.80;;;;;;4843186;29;20034;-62
2022/04/10 10:18:23;;;;;;;7.18;4.15;;;384.10;1228.80;;;;;;4843154;29;20046;-62
2022/04/10 10:20:50;;;;;;;14.73;6.05;;;384.10;1203.20;;;;;;4843073;29;20030;-62
2022/04/10 10:23:20;;;;;;;6.10;4.70;;;384.10;1177.60;;;;;;4843165;29;20057;-62
2022/04/10 10:25:45;;;;;;;8.98;5.40;;;384.20;1203.20;;;;;;4843315;29;20026;-62
2022/04/10 10:28:30;;;;;;;10.93;5.90;;;384.10;1203.20;;;;;;4842914;29;20469;-62
2022/04/10 10:31:04;;;;;;;9.00;4.97;;;384.10;1177.60;;;;;;4843413;29;20514;-63
2022/04/10 10:33:31;;;;;;;5.35;3.60;;;384.10;1152.00;;;;;;4843018;29;20113;-63
2022/04/10 10:35:59;;;;;;;7.50;4.18;;;384.10;1126.40;;;;;;4843020;29;20046;-62
2022/04/10 10:38:31;;;;;;;4.15;3.03;;;359.30;1126.40;;;;;;4842995;29;20073;-62
2022/04/10 10:41:08;;;;;;;14.43;4.20;;;359.20;1126.40;;;;;;4840140;29;20065;-62
2022/04/10 10:43:34;;;;;;;10.52;6.35;;;359.00;1152.00;;;;;;4843009;29;20559;-62
2022/04/10 10:46:00;;;;;;;10.75;5.95;;;359.10;1177.60;;;;;;4842950;29;20030;-62
2022/04/10 10:48:35;;;;;;;13.20;8.02;;;359.10;1177.60;;;;;;4842913;29;20081;-63
2022/04/10 10:51:11;;;;;;;9.55;4.93;;;359.20;1177.60;;;;;;4826661;29;20129;-63
2022/04/10 10:53:48;;;;;;;11.65;6.82;;;359.10;1177.60;;;;;;4842831;29;20385;-61
2022/04/10 10:56:21;;;;;;;15.18;8.52;;;359.10;1177.60;;;;;;4842648;29;20038;-61
2022/04/10 10:58:48;;;;;;;10.27;5.60;;;358.90;1152.00;;;;;;4842858;29;20046;-63
2022/04/10 11:01:28;;;;;;;15.63;9.68;;;359.00;1152.00;;;;;;4844537;29;20754;-62
2022/04/10 11:04:05;;;;;;;31.38;19.42;;;359.10;1177.60;;;;;;4846663;29;20417;-62
2022/04/10 11:06:42;;;;;;;12.35;6.55;;;359.20;1177.60;;;;;;4846621;29;20026;-63
2022/04/10 11:09:31;;;;;;;18.60;11.48;;;359.00;1126.40;;;;;;4846500;29;20473;-61
2022/04/10 11:11:59;;;;;;;33.63;16.48;;;358.90;1177.60;;;;;;4846542;29;20090;-61
2022/04/10 11:14:41;;;;;;;43.03;20.73;;;358.70;1203.20;;;;;;4846099;29;20025;-62
2022/04/10 11:17:18;;;;;;;19.35;11.32;;;358.70;1177.60;;;;;;4846212;29;20038;-63
2022/04/10 11:19:49;;;;;;;47.80;26.30;;;358.70;1203.20;;;;;;4845935;29;20376;-62
2022/04/10 11:22:23;;;;;;;38.20;18.38;;;358.80;1203.20;;;;;;4845928;29;20032;-63
2022/04/10 11:24:57;;;;;;;15.45;9.98;;;358.80;1228.80;;;;;;4846242;29;20109;-62
2022/04/10 11:27:39;;;;;;;;;;;358.90;1152.00;;;;;;4846377;29;20030;-62
2022/04/10 11:30:06;;;;;;;22.00;14.38;;;358.90;1152.00;;;;;;4845782;29;19916;-63
2022/04/10 11:32:48;;;;;;;23.65;17.83;;;358.80;1152.00;;;;;;4845716;29;20038;-62
2022/04/10 11:35:20;;;;;;;8.10;6.22;;;358.80;1152.00;;;;;;4846107;29;20059;-63
2022/04/10 11:37:48;;;;;;;11.07;6.32;;;358.80;1100.80;;;;;;4845806;29;20046;-62
2022/04/10 11:40:17;;;;;;;12.48;8.32;;;358.70;1126.40;;;;;;4845693;29;20033;-63
2022/04/10 11:42:43;;;;;;;6.55;4.93;;;358.70;1126.40;;;;;;4845684;29;20038;-63
2022/04/10 11:45:10;;;;;;;16.48;8.20;;;358.60;1126.40;;;;;;4845880;29;20019;-62
2022/04/10 11:47:38;;;;;;;13.77;8.73;;;358.60;1177.60;;;;;;4845676;29;20037;-63
2022/04/10 11:50:06;;;;;;;20.38;10.82;;;358.40;1203.20;;;;;;4845829;29;20097;-61
2022/04/10 11:52:32;;;;;;;19.20;10.65;;;333.70;1228.80;;;;;;4845605;29;20033;-62
2022/04/10 11:54:57;;;;;;;28.60;12.93;;;333.50;1228.80;;;;;;4845371;29;20105;-63
2022/04/10 11:57:24;;;;;;;39.75;21.67;;;333.30;1254.40;;;;;;4845353;29;20053;-63
2022/04/10 11:59:50;;;;;;;48.65;28.17;;;333.30;1254.40;;;;;;4845562;29;20026;-62
2022/04/10 12:02:17;;;;;;;34.78;21.40;;;333.30;1280.00;;;;;;4845510;29;20030;-61
2022/04/10 12:04:44;;;;;;;32.53;19.92;;;333.20;1254.40;;;;;;4844738;29;20120;-61
2022/04/10 12:07:16;;;;;;;28.20;16.83;;;333.20;1254.40;;;;;;4845366;29;20041;-63
2022/04/10 12:09:43;;;;;;;26.88;17.33;;;333.20;1254.40;;;;;;4845494;29;20354;-62
2022/04/10 12:12:09;;;;;;;20.65;14.15;;;333.40;1254.40;;;;;;4843891;29;20057;-63
2022/04/10 12:14:35;;;;;;;12.90;8.70;;;333.70;1228.80;;;;;;4845091;29;20025;-63